createdAt,value
2019-02-04T00:00:41.593Z,1011.99
2019-02-04T00:01:41.580Z,1011.96
2019-02-04T00:02:41.570Z,1011.99
2019-02-04T00:03:41.556Z,1011.96
2019-02-04T00:04:41.547Z,1012.00
2019-02-04T00:05:41.537Z,1011.98
2019-02-04T00:06:41.524Z,1011.97
2019-02-04T00:07:41.516Z,1012.02
2019-02-04T00:08:41.502Z,1012.00
2019-02-04T00:09:41.494Z,1012.00
2019-02-04T00:10:41.481Z,1011.94
2019-02-04T00:11:41.470Z,1011.96
2019-02-04T00:12:41.464Z,1011.95
2019-02-04T00:13:41.450Z,1011.97
2019-02-04T00:14:41.439Z,1012.01
2019-02-04T00:15:41.429Z,1012.05
2019-02-04T00:16:41.418Z,1012.00
2019-02-04T00:17:41.413Z,1012.03
2019-02-04T00:18:41.395Z,1012.06
2019-02-04T00:19:41.383Z,1012.07
2019-02-04T00:20:41.372Z,1012.04
2019-02-04T00:21:41.363Z,1012.03
2019-02-04T00:22:41.354Z,1012.01
2019-02-04T00:23:41.350Z,1012.01
2019-02-04T00:24:41.332Z,1012.02
2019-02-04T00:25:41.322Z,1012.04
2019-02-04T00:26:51.386Z,1012.07
2019-02-04T00:28:02.483Z,1012.06
2019-02-04T00:29:02.470Z,1012.06
2019-02-04T00:30:02.462Z,1012.08
2019-02-04T00:31:05.093Z,1012.09
2019-02-04T00:32:02.439Z,1012.08
2019-02-04T00:33:02.429Z,1012.03
2019-02-04T00:34:02.424Z,1012.03
2019-02-04T00:35:02.411Z,1012.01
2019-02-04T00:36:02.394Z,1012.01
2019-02-04T00:37:02.387Z,1012.03
2019-02-04T00:38:02.461Z,1012.01
2019-02-04T00:39:02.690Z,1011.96
2019-02-04T00:40:02.351Z,1012.01
2019-02-04T00:41:02.342Z,1011.96
2019-02-04T00:42:02.330Z,1011.91
2019-02-04T00:43:02.319Z,1011.86
2019-02-04T00:44:02.308Z,1011.84
2019-02-04T00:45:02.300Z,1011.85
2019-02-04T00:46:02.289Z,1011.89
2019-02-04T00:47:02.277Z,1011.90
2019-02-04T00:48:02.267Z,1011.95
2019-02-04T00:49:02.253Z,1011.93
2019-02-04T00:50:02.243Z,1011.89
2019-02-04T00:51:02.240Z,1011.96
2019-02-04T00:52:02.223Z,1011.94
2019-02-04T00:53:02.212Z,1011.97
2019-02-04T00:54:02.202Z,1011.99
2019-02-04T00:55:02.191Z,1011.99
2019-02-04T00:56:02.179Z,1011.99
2019-02-04T00:57:02.168Z,1011.96
2019-02-04T00:58:02.161Z,1011.98
2019-02-04T00:59:02.151Z,1011.94
2019-02-04T01:00:02.139Z,1011.96
2019-02-04T01:01:02.126Z,1011.97
2019-02-04T01:02:02.115Z,1011.97
2019-02-04T01:03:02.105Z,1011.98
2019-02-04T01:04:02.095Z,1011.99
2019-02-04T01:05:02.086Z,1012.02
2019-02-04T01:06:02.070Z,1012.04
2019-02-04T01:07:02.061Z,1012.02
2019-02-04T01:08:02.049Z,1012.04
2019-02-04T01:09:02.040Z,1012.08
2019-02-04T01:10:02.031Z,1012.07
2019-02-04T01:11:02.018Z,1012.09
2019-02-04T01:12:02.008Z,1012.11
2019-02-04T01:13:01.998Z,1012.14
2019-02-04T01:14:01.983Z,1012.14
2019-02-04T01:15:01.978Z,1012.12
2019-02-04T01:16:01.965Z,1012.15
2019-02-04T01:17:03.517Z,1012.18
2019-02-04T01:18:01.942Z,1012.24
2019-02-04T01:19:01.931Z,1012.26
2019-02-04T01:20:01.919Z,1012.33
2019-02-04T01:21:01.912Z,1012.32
2019-02-04T01:22:01.899Z,1012.36
2019-02-04T01:23:01.902Z,1012.31
2019-02-04T01:24:01.994Z,1012.31
2019-02-04T01:25:01.866Z,1012.32
2019-02-04T01:26:01.853Z,1012.36
2019-02-04T01:27:01.843Z,1012.33
2019-02-04T01:28:01.833Z,1012.36
2019-02-04T01:29:01.822Z,1012.39
2019-02-04T01:30:01.811Z,1012.36
2019-02-04T01:31:01.798Z,1012.42
2019-02-04T01:32:01.790Z,1012.43
2019-02-04T01:33:01.778Z,1012.45
2019-02-04T01:34:01.767Z,1012.51
2019-02-04T01:35:01.757Z,1012.54
2019-02-04T01:36:01.745Z,1012.56
2019-02-04T01:37:01.735Z,1012.56
2019-02-04T01:38:01.722Z,1012.60
2019-02-04T01:39:01.713Z,1012.59
2019-02-04T01:40:01.703Z,1012.55
2019-02-04T01:41:01.691Z,1012.58
2019-02-04T01:42:01.688Z,1012.58
2019-02-04T01:43:01.684Z,1012.58
2019-02-04T01:44:01.661Z,1012.55
2019-02-04T01:45:01.651Z,1012.61
2019-02-04T01:46:01.641Z,1012.53
2019-02-04T01:47:01.629Z,1012.54
2019-02-04T01:48:01.614Z,1012.59
2019-02-04T01:49:01.604Z,1012.68
2019-02-04T01:50:01.594Z,1012.65
2019-02-04T01:51:01.584Z,1012.69
2019-02-04T01:52:01.571Z,1012.73
2019-02-04T01:53:01.561Z,1012.74
2019-02-04T01:54:01.554Z,1012.71
2019-02-04T01:55:01.542Z,1012.77
2019-02-04T01:56:01.530Z,1012.77
2019-02-04T01:57:01.518Z,1012.79
2019-02-04T01:58:01.506Z,1012.78
2019-02-04T01:59:01.499Z,1012.80
2019-02-04T02:00:01.489Z,1012.77
2019-02-04T02:01:01.476Z,1012.81
2019-02-04T02:02:01.464Z,1012.78
2019-02-04T02:03:01.458Z,1012.77
2019-02-04T02:04:01.444Z,1012.77
2019-02-04T02:05:01.432Z,1012.80
2019-02-04T02:06:01.422Z,1012.79
2019-02-04T02:07:01.412Z,1012.75
2019-02-04T02:08:01.403Z,1012.76
2019-02-04T02:09:01.387Z,1012.77
2019-02-04T02:10:01.379Z,1012.72
2019-02-04T02:11:01.368Z,1012.69
2019-02-04T02:12:01.355Z,1012.74
2019-02-04T02:13:01.358Z,1012.69
2019-02-04T02:14:01.336Z,1012.66
2019-02-04T02:15:01.326Z,1012.67
2019-02-04T02:16:01.312Z,1012.69
2019-02-04T02:17:01.303Z,1012.71
2019-02-04T02:18:01.291Z,1012.68
2019-02-04T02:19:01.282Z,1012.68
2019-02-04T02:20:01.275Z,1012.67
2019-02-04T02:21:01.258Z,1012.65
2019-02-04T02:22:01.249Z,1012.70
2019-02-04T02:23:01.237Z,1012.66
2019-02-04T02:24:01.228Z,1012.62
2019-02-04T02:25:01.217Z,1012.64
2019-02-04T02:26:01.205Z,1012.61
2019-02-04T02:27:01.195Z,1012.63
2019-02-04T02:28:01.183Z,1012.64
2019-02-04T02:29:01.174Z,1012.68
2019-02-04T02:30:01.167Z,1012.69
2019-02-04T02:31:01.151Z,1012.69
2019-02-04T02:32:01.139Z,1012.67
2019-02-04T02:33:01.128Z,1012.69
2019-02-04T02:34:01.120Z,1012.69
2019-02-04T02:35:01.110Z,1012.65
2019-02-04T02:36:01.097Z,1012.62
2019-02-04T02:37:01.086Z,1012.59
2019-02-04T02:38:01.077Z,1012.57
2019-02-04T02:39:01.070Z,1012.59
2019-02-04T02:40:01.055Z,1012.56
2019-02-04T02:41:01.044Z,1012.54
2019-02-04T02:42:01.036Z,1012.54
2019-02-04T02:43:01.023Z,1012.53
2019-02-04T08:26:18.541Z,1013.14
2019-02-04T08:27:18.533Z,1013.20
2019-02-04T08:28:18.519Z,1013.20
2019-02-04T08:29:18.509Z,1013.20
2019-02-04T08:30:18.498Z,1013.21
2019-02-04T08:31:18.487Z,1013.23
2019-02-04T08:32:18.476Z,1013.16
2019-02-04T08:33:18.466Z,1013.21
2019-02-04T08:34:18.456Z,1013.16
2019-02-04T08:35:18.443Z,1013.14
2019-02-04T08:36:18.431Z,1013.18
2019-02-04T08:37:18.425Z,1013.18
2019-02-04T08:38:18.411Z,1013.19
2019-02-04T08:39:18.399Z,1013.18
2019-02-04T08:40:18.391Z,1013.27
2019-02-04T08:41:18.380Z,1013.27
2019-02-04T08:42:18.369Z,1013.26
2019-02-04T08:43:18.358Z,1013.28
2019-02-04T08:44:18.344Z,1013.30
2019-02-04T08:45:18.334Z,1013.31
2019-02-04T08:46:18.324Z,1013.34
2019-02-04T08:47:23.098Z,1013.30
2019-02-04T08:48:18.303Z,1013.33
2019-02-04T08:49:18.294Z,1013.31
2019-02-04T08:50:18.287Z,1013.26
2019-02-04T08:51:18.274Z,1013.32
2019-02-04T08:52:18.267Z,1013.35
2019-02-04T08:53:18.248Z,1013.34
2019-02-04T08:54:18.240Z,1013.32
2019-02-04T08:55:18.228Z,1013.36
2019-02-04T08:56:18.216Z,1013.34
2019-02-04T08:57:18.207Z,1013.31
2019-02-04T08:58:18.195Z,1013.30
2019-02-04T08:59:18.183Z,1013.23
2019-02-04T09:00:18.175Z,1013.26
2019-02-04T09:01:18.161Z,1013.28
2019-02-04T09:02:18.154Z,1013.32
2019-02-04T09:03:18.187Z,1013.29
2019-02-04T09:04:18.161Z,1013.33
2019-02-04T09:05:18.126Z,1013.33
2019-02-04T09:06:18.110Z,1013.25
2019-02-04T09:07:18.097Z,1013.33
2019-02-04T09:08:18.091Z,1013.28
2019-02-04T09:09:18.076Z,1013.30
2019-02-04T09:10:18.065Z,1013.29
2019-02-04T09:11:18.055Z,1013.30
2019-02-04T09:12:18.057Z,1013.26
2019-02-04T09:13:18.040Z,1013.22
2019-02-04T09:14:18.024Z,1013.29
2019-02-04T09:15:18.013Z,1013.31
2019-02-04T09:16:18.000Z,1013.23
2019-02-04T09:17:17.991Z,1013.22
2019-02-04T09:18:17.981Z,1013.23
2019-02-04T09:19:18.006Z,1013.14
2019-02-04T09:20:17.968Z,1013.15
2019-02-04T09:21:17.949Z,1013.12
2019-02-04T09:22:17.939Z,1013.10
2019-02-04T09:23:17.926Z,1013.10
2019-02-04T09:24:17.917Z,1013.06
2019-02-04T09:25:17.904Z,1013.06
2019-02-04T09:26:17.895Z,1013.06
2019-02-04T09:27:17.883Z,1013.03
2019-02-04T09:28:17.876Z,1012.94
2019-02-04T09:29:17.861Z,1012.94
2019-02-04T09:30:17.941Z,1012.90
2019-02-04T09:31:17.839Z,1012.81
2019-02-04T09:32:17.828Z,1012.72
2019-02-04T09:33:17.818Z,1012.74
2019-02-04T09:34:17.809Z,1012.66
2019-02-04T09:35:17.808Z,1012.67
2019-02-04T09:36:17.786Z,1012.69
2019-02-04T09:37:17.775Z,1012.67
2019-02-04T09:38:17.765Z,1012.66
2019-02-04T09:39:17.758Z,1012.57
2019-02-04T09:40:17.743Z,1012.57
2019-02-04T09:41:17.738Z,1012.57
2019-02-04T09:42:17.723Z,1012.60
2019-02-04T09:43:17.711Z,1012.58
2019-02-04T09:44:17.699Z,1012.54
2019-02-04T09:45:17.688Z,1012.57
2019-02-04T09:46:17.679Z,1012.51
2019-02-04T09:47:17.670Z,1012.52
2019-02-04T09:48:17.658Z,1012.53
2019-02-04T09:49:17.646Z,1012.55
2019-02-04T09:50:21.806Z,1012.53
2019-02-04T09:51:17.625Z,1012.52
2019-02-04T09:52:17.613Z,1012.48
2019-02-04T09:53:17.605Z,1012.50
2019-02-04T09:54:17.592Z,1012.50
2019-02-04T09:55:17.587Z,1012.55
2019-02-04T09:56:17.577Z,1012.52
2019-02-04T09:57:17.561Z,1012.50
2019-02-04T09:58:17.684Z,1012.41
2019-02-04T09:59:17.661Z,1012.50
2019-02-04T10:00:17.528Z,1012.51
2019-02-04T10:01:17.520Z,1012.47
2019-02-04T10:02:17.511Z,1012.44
2019-02-04T10:03:17.495Z,1012.39
2019-02-04T10:04:17.486Z,1012.35
2019-02-04T10:05:17.482Z,1012.39
2019-02-04T10:06:17.465Z,1012.36
2019-02-04T10:07:17.454Z,1012.32
2019-02-04T10:08:17.449Z,1012.29
2019-02-04T10:09:17.430Z,1012.36
2019-02-04T10:10:17.424Z,1012.30
2019-02-04T10:11:17.409Z,1012.33
2019-02-04T10:12:17.400Z,1012.28
2019-02-04T10:13:17.387Z,1012.30
2019-02-04T10:14:17.376Z,1012.34
2019-02-04T10:15:17.399Z,1012.26
2019-02-04T10:16:17.355Z,1012.23
2019-02-04T10:17:17.370Z,1012.21
2019-02-04T10:18:17.346Z,1012.21
2019-02-04T10:19:17.325Z,1012.23
2019-02-04T10:20:17.342Z,1012.17
2019-02-04T10:21:17.338Z,1012.20
2019-02-04T10:22:17.300Z,1012.28
2019-02-04T10:23:17.351Z,1012.23
2019-02-04T10:24:17.267Z,1012.26
2019-02-04T10:25:17.259Z,1012.25
2019-02-04T10:26:17.272Z,1012.19
2019-02-04T10:27:17.236Z,1012.20
2019-02-04T10:28:17.252Z,1012.14
2019-02-04T10:29:17.222Z,1012.24
2019-02-04T10:30:17.210Z,1012.21
2019-02-04T10:31:17.194Z,1012.18
2019-02-04T10:32:17.189Z,1012.20
2019-02-04T10:33:17.316Z,1012.13
2019-02-04T10:34:17.173Z,1012.10
2019-02-04T10:35:17.272Z,1012.07
2019-02-04T10:36:17.146Z,1012.04
2019-02-04T10:37:17.166Z,1012.03
2019-02-04T10:38:17.133Z,1012.06
2019-02-04T10:39:17.126Z,1012.01
2019-02-04T10:40:17.099Z,1012.02
2019-02-04T10:41:17.135Z,1012.06
2019-02-04T10:42:17.101Z,1012.05
2019-02-04T10:43:17.113Z,1012.02
2019-02-04T10:44:17.062Z,1012.04
2019-02-04T10:45:17.045Z,1012.04
2019-02-04T10:46:17.033Z,1012.07
2019-02-04T10:47:17.054Z,1012.14
2019-02-04T10:48:17.020Z,1012.02
2019-02-04T10:49:17.040Z,1012.06
2019-02-04T10:50:16.988Z,1012.06
2019-02-04T10:51:16.998Z,1012.10
2019-02-04T10:52:16.968Z,1012.14
2019-02-04T10:53:16.970Z,1012.09
2019-02-04T10:54:16.984Z,1012.10
2019-02-04T10:55:16.957Z,1012.08
2019-02-04T10:56:16.965Z,1012.16
2019-02-04T10:57:16.912Z,1012.10
2019-02-04T10:58:16.925Z,1012.12
2019-02-04T10:59:16.892Z,1012.14
2019-02-04T11:00:16.926Z,1012.12
2019-02-04T11:01:16.908Z,1012.10
2019-02-04T11:02:16.889Z,1012.07
2019-02-04T11:03:19.853Z,1012.04
2019-02-04T11:04:16.841Z,1012.06
2019-02-04T11:05:16.849Z,1012.08
2019-02-04T11:06:16.838Z,1012.00
2019-02-04T11:07:16.820Z,1011.98
2019-02-04T11:08:16.838Z,1012.03
2019-02-04T11:09:16.796Z,1012.04
2019-02-04T11:10:16.770Z,1011.97
2019-02-04T11:11:16.807Z,1011.97
2019-02-04T11:12:16.761Z,1012.02
2019-02-04T11:13:16.779Z,1012.00
2019-02-04T11:14:16.741Z,1011.93
2019-02-04T11:15:16.745Z,1011.99
2019-02-04T11:16:16.706Z,1011.93
2019-02-04T11:17:16.738Z,1011.93
2019-02-04T11:18:16.698Z,1011.98
2019-02-04T11:19:16.684Z,1011.94
2019-02-04T11:20:16.704Z,1011.90
2019-02-04T11:21:16.696Z,1011.80
2019-02-04T11:22:16.647Z,1011.80
2019-02-04T11:23:16.684Z,1011.85
2019-02-04T11:24:16.619Z,1011.83
2019-02-04T11:25:16.746Z,1011.80
2019-02-04T11:26:16.663Z,1011.84
2019-02-04T11:27:16.598Z,1011.84
2019-02-04T11:28:16.665Z,1011.78
2019-02-04T11:29:18.743Z,1011.83
2019-02-04T11:30:16.598Z,1011.82
2019-02-04T11:31:16.577Z,1011.82
2019-02-04T11:32:16.567Z,1011.80
2019-02-04T11:33:16.567Z,1011.82
2019-02-04T11:34:16.513Z,1011.80
2019-02-04T11:35:16.504Z,1011.82
2019-02-04T11:36:16.519Z,1011.85
2019-02-04T11:37:16.483Z,1011.87
2019-02-04T11:38:16.531Z,1011.88
2019-02-04T11:39:16.460Z,1011.94
2019-02-04T11:40:16.498Z,1011.88
2019-02-04T11:41:16.437Z,1011.87
2019-02-04T11:42:16.426Z,1011.86
2019-02-04T11:43:16.446Z,1011.82
2019-02-04T11:44:16.406Z,1011.76
2019-02-04T11:45:16.393Z,1011.79
2019-02-04T11:46:16.388Z,1011.81
2019-02-04T11:47:16.375Z,1011.79
2019-02-04T11:48:16.409Z,1011.73
2019-02-04T11:49:16.352Z,1011.78
2019-02-04T11:50:16.342Z,1011.82
2019-02-04T11:51:16.330Z,1011.76
2019-02-04T11:52:16.320Z,1011.76
2019-02-04T11:53:16.309Z,1011.73
2019-02-04T11:54:16.296Z,1011.75
2019-02-04T11:55:16.299Z,1011.76
2019-02-04T11:56:16.275Z,1011.76
2019-02-04T11:57:16.268Z,1011.72
2019-02-04T11:58:16.253Z,1011.70
2019-02-04T11:59:16.250Z,1011.66
2019-02-04T12:00:16.235Z,1011.68
2019-02-04T12:01:16.220Z,1011.67
2019-02-04T12:02:16.211Z,1011.65
2019-02-04T12:03:16.198Z,1011.68
2019-02-04T12:04:16.189Z,1011.64
2019-02-04T12:05:16.178Z,1011.60
2019-02-04T12:06:17.575Z,1011.59
2019-02-04T12:07:16.158Z,1011.64
2019-02-04T12:08:16.145Z,1011.65
2019-02-04T12:09:16.137Z,1011.55
2019-02-04T12:10:16.126Z,1011.55
2019-02-04T12:11:16.233Z,1011.56
2019-02-04T12:12:16.219Z,1011.57
2019-02-04T12:13:16.094Z,1011.46
2019-02-04T12:14:16.089Z,1011.54
2019-02-04T12:15:16.073Z,1011.47
2019-02-04T12:16:16.059Z,1011.52
2019-02-04T12:17:16.049Z,1011.48
2019-02-04T12:18:16.038Z,1011.45
2019-02-04T12:19:16.027Z,1011.43
2019-02-04T12:20:16.014Z,1011.44
2019-02-04T12:21:21.491Z,1011.43
2019-02-04T12:22:15.996Z,1011.39
2019-02-04T12:23:15.984Z,1011.40
2019-02-04T12:24:15.972Z,1011.34
2019-02-04T12:25:15.963Z,1011.33
2019-02-04T12:26:15.951Z,1011.35
2019-02-04T12:27:15.940Z,1011.31
2019-02-04T12:28:15.931Z,1011.36
2019-02-04T12:29:15.918Z,1011.39
2019-02-04T12:30:15.909Z,1011.35
2019-02-04T12:31:15.897Z,1011.34
2019-02-04T12:32:15.887Z,1011.30
2019-02-04T12:33:15.879Z,1011.29
2019-02-04T12:34:15.868Z,1011.27
2019-02-04T12:35:15.855Z,1011.35
2019-02-04T12:36:15.843Z,1011.35
2019-02-04T12:37:15.832Z,1011.36
2019-02-04T12:38:15.825Z,1011.27
2019-02-04T12:39:15.813Z,1011.38
2019-02-04T12:40:15.801Z,1011.24
2019-02-04T12:41:15.792Z,1011.32
2019-02-04T12:42:15.780Z,1011.29
2019-02-04T12:43:15.768Z,1011.29
2019-02-04T12:44:15.757Z,1011.22
2019-02-04T12:45:15.746Z,1011.23
2019-02-04T12:46:15.736Z,1011.25
2019-02-04T12:47:15.728Z,1011.23
2019-02-04T12:48:15.714Z,1011.18
2019-02-04T12:49:15.703Z,1011.20
2019-02-04T12:50:15.806Z,1011.10
2019-02-04T12:51:15.783Z,1011.15
2019-02-04T12:52:15.669Z,1011.19
2019-02-04T12:53:15.658Z,1011.10
2019-02-04T12:54:15.648Z,1011.13
2019-02-04T12:55:15.639Z,1011.12
2019-02-04T12:56:15.627Z,1011.08
2019-02-04T12:57:15.617Z,1011.07
2019-02-04T12:58:15.606Z,1011.06
2019-02-04T12:59:15.593Z,1011.07
2019-02-04T13:00:15.583Z,1011.00
2019-02-04T13:01:15.574Z,1011.02
2019-02-04T13:02:15.567Z,1011.06
2019-02-04T13:03:15.552Z,1011.06
2019-02-04T13:04:15.541Z,1011.10
2019-02-04T13:05:15.529Z,1011.07
2019-02-04T13:06:15.519Z,1011.11
2019-02-04T13:07:15.508Z,1011.12
2019-02-04T13:08:15.500Z,1011.18
2019-02-04T13:09:15.487Z,1011.20
2019-02-04T13:10:15.475Z,1011.15
2019-02-04T13:11:15.466Z,1011.22
2019-02-04T13:12:15.456Z,1011.21
2019-02-04T13:13:15.442Z,1011.21
2019-02-04T13:14:15.433Z,1011.17
2019-02-04T13:15:15.423Z,1011.15
2019-02-04T13:16:15.415Z,1011.20
2019-02-04T13:17:15.400Z,1011.20
2019-02-04T13:18:15.388Z,1011.16
2019-02-04T13:19:15.377Z,1011.22
2019-02-04T13:20:15.367Z,1011.18
2019-02-04T13:21:15.358Z,1011.15
2019-02-04T13:22:15.346Z,1011.13
2019-02-04T13:23:15.337Z,1011.20
2019-02-04T13:24:15.325Z,1011.10
2019-02-04T13:25:15.313Z,1011.08
2019-02-04T13:26:15.312Z,1011.06
2019-02-04T13:27:15.402Z,1011.09
2019-02-04T13:28:15.281Z,1010.92
2019-02-04T13:29:15.275Z,1011.00
2019-02-04T13:30:15.261Z,1011.07
2019-02-04T13:31:15.248Z,1011.03
2019-02-04T13:32:15.273Z,1011.02
2019-02-04T13:33:15.226Z,1010.98
2019-02-04T13:34:15.218Z,1010.89
2019-02-04T13:35:15.204Z,1010.93
2019-02-04T13:36:15.193Z,1010.91
2019-02-04T13:37:15.182Z,1010.87
2019-02-04T13:38:15.174Z,1010.94
2019-02-04T13:39:15.161Z,1010.93
2019-02-04T13:40:15.152Z,1010.96
2019-02-04T13:41:15.139Z,1010.98
2019-02-04T13:42:15.132Z,1010.99
2019-02-04T13:43:15.126Z,1010.95
2019-02-04T13:44:15.106Z,1010.93
2019-02-04T13:45:15.096Z,1010.97
2019-02-04T13:46:15.090Z,1010.96
2019-02-04T13:47:15.075Z,1010.95
2019-02-04T13:48:15.063Z,1010.94
2019-02-04T13:49:15.076Z,1010.93
2019-02-04T13:50:15.043Z,1010.90
2019-02-04T13:51:15.031Z,1010.94
2019-02-04T13:52:15.392Z,1010.90
2019-02-04T13:53:15.015Z,1010.86
2019-02-04T13:54:14.999Z,1010.87
2019-02-04T13:55:14.991Z,1010.86
2019-02-04T13:56:14.977Z,1010.85
2019-02-04T13:57:14.967Z,1010.84
2019-02-04T13:58:14.956Z,1010.83
2019-02-04T13:59:14.946Z,1010.87
2019-02-04T14:00:14.934Z,1010.90
2019-02-04T14:01:14.924Z,1010.84
2019-02-04T14:02:14.916Z,1010.86
2019-02-04T14:03:17.575Z,1010.87
2019-02-04T14:04:14.897Z,1010.86
2019-02-04T14:05:14.879Z,1010.92
2019-02-04T14:06:14.869Z,1010.89
2019-02-04T14:07:14.862Z,1010.85
2019-02-04T14:08:14.846Z,1010.87
2019-02-04T14:09:14.837Z,1010.84
2019-02-04T14:10:14.827Z,1010.84
2019-02-04T14:11:14.814Z,1010.84
2019-02-04T14:12:14.804Z,1010.82
2019-02-04T14:13:14.793Z,1010.92
2019-02-04T14:14:14.782Z,1010.83
2019-02-04T14:15:14.772Z,1010.90
2019-02-04T14:16:14.767Z,1010.87
2019-02-04T14:17:14.751Z,1010.80
2019-02-04T14:18:14.742Z,1010.83
2019-02-04T14:19:14.731Z,1010.80
2019-02-04T14:20:14.718Z,1010.79
2019-02-04T14:21:14.708Z,1010.80
2019-02-04T14:22:14.695Z,1010.87
2019-02-04T14:23:14.687Z,1010.91
2019-02-04T14:24:14.676Z,1010.87
2019-02-04T14:25:14.663Z,1010.85
2019-02-04T14:26:14.654Z,1010.81
2019-02-04T14:27:14.642Z,1010.78
2019-02-04T14:28:14.629Z,1010.83
2019-02-04T14:29:14.620Z,1010.82
2019-02-04T14:30:14.622Z,1010.83
2019-02-04T14:31:14.600Z,1010.86
2019-02-04T14:32:14.586Z,1010.80
2019-02-04T14:33:14.582Z,1010.82
2019-02-04T14:34:14.566Z,1010.87
2019-02-04T14:35:14.557Z,1010.85
2019-02-04T14:36:14.549Z,1010.83
2019-02-04T14:37:14.533Z,1010.81
2019-02-04T14:38:14.570Z,1010.77
2019-02-04T14:39:14.510Z,1010.76
2019-02-04T14:40:18.702Z,1010.77
2019-02-04T14:41:14.492Z,1010.84
2019-02-04T14:42:14.480Z,1010.79
2019-02-04T14:43:14.469Z,1010.78
2019-02-04T14:44:14.458Z,1010.85
2019-02-04T14:45:14.448Z,1010.86
2019-02-04T14:46:14.436Z,1010.88
2019-02-04T14:47:14.424Z,1010.87
2019-02-04T14:48:14.421Z,1010.91
2019-02-04T14:49:14.404Z,1010.87
2019-02-04T14:50:14.392Z,1010.89
2019-02-04T14:51:14.386Z,1010.88
2019-02-04T14:52:21.532Z,1010.88
2019-02-04T14:53:35.541Z,1010.87
2019-02-04T14:54:38.127Z,1010.83
2019-02-04T14:55:35.521Z,1010.84
2019-02-04T14:56:35.598Z,1010.84
2019-02-04T14:57:35.499Z,1010.84
2019-02-04T14:58:35.498Z,1010.83
2019-02-04T14:59:35.479Z,1010.82
2019-02-04T15:00:35.467Z,1010.80
2019-02-04T15:01:35.456Z,1010.80
2019-02-04T15:02:35.447Z,1010.81
2019-02-04T15:03:35.434Z,1010.84
2019-02-04T15:04:35.422Z,1010.81
2019-02-04T15:05:35.411Z,1010.76
2019-02-04T15:06:35.401Z,1010.77
2019-02-04T15:07:35.391Z,1010.79
2019-02-04T15:08:35.380Z,1010.78
2019-02-04T15:09:35.368Z,1010.75
2019-02-04T15:10:35.358Z,1010.75
2019-02-04T15:11:35.346Z,1010.68
2019-02-04T15:12:35.334Z,1010.70
2019-02-04T15:13:35.324Z,1010.67
2019-02-04T15:14:35.313Z,1010.65
2019-02-04T15:15:35.300Z,1010.72
2019-02-04T15:16:35.291Z,1010.73
2019-02-04T15:17:35.280Z,1010.78
2019-02-04T15:18:35.272Z,1010.73
2019-02-04T15:19:37.578Z,1010.64
2019-02-04T15:20:35.251Z,1010.69
2019-02-04T15:21:35.236Z,1010.66
2019-02-04T15:22:35.227Z,1010.66
2019-02-04T15:23:35.214Z,1010.65
2019-02-04T15:24:35.203Z,1010.64
2019-02-04T15:25:35.191Z,1010.70
2019-02-04T15:26:35.183Z,1010.67
2019-02-04T15:27:35.172Z,1010.71
2019-02-04T15:28:35.160Z,1010.74
2019-02-04T15:29:46.298Z,1010.76
2019-02-04T15:30:56.319Z,1010.68
2019-02-04T15:31:56.309Z,1010.67
2019-02-04T15:32:56.398Z,1010.65
2019-02-04T15:33:56.288Z,1010.71
2019-02-04T15:35:04.272Z,1010.68
2019-02-04T15:36:17.449Z,1010.71
2019-02-04T15:37:17.435Z,1010.65
2019-02-04T15:38:17.426Z,1010.66
2019-02-04T15:39:17.415Z,1010.62
2019-02-04T15:40:17.404Z,1010.59
2019-02-04T15:41:17.395Z,1010.65
2019-02-04T15:42:17.383Z,1010.55
2019-02-04T15:43:17.373Z,1010.59
2019-02-04T15:44:17.359Z,1010.58
2019-02-04T15:45:17.351Z,1010.59
2019-02-04T15:46:17.338Z,1010.56
2019-02-04T15:47:17.327Z,1010.56
2019-02-04T15:48:17.316Z,1010.54
2019-02-04T15:49:17.310Z,1010.54
2019-02-04T15:50:17.294Z,1010.59
2019-02-04T15:51:17.284Z,1010.52
2019-02-04T15:52:17.276Z,1010.53
2019-02-04T15:53:17.265Z,1010.52
2019-02-04T15:54:17.251Z,1010.57
2019-02-04T15:55:17.238Z,1010.61
2019-02-04T15:56:17.234Z,1010.59
2019-02-04T15:57:17.217Z,1010.58
2019-02-04T15:58:17.204Z,1010.60
2019-02-04T15:59:17.199Z,1010.55
2019-02-04T16:00:17.184Z,1010.59
2019-02-04T16:01:17.177Z,1010.60
2019-02-04T16:02:17.167Z,1010.66
2019-02-04T16:03:17.153Z,1010.59
2019-02-04T16:04:17.150Z,1010.57
2019-02-04T16:05:17.130Z,1010.56
2019-02-04T16:06:17.120Z,1010.60
2019-02-04T16:07:17.118Z,1010.61
2019-02-04T16:08:17.098Z,1010.59
2019-02-04T16:09:17.087Z,1010.56
2019-02-04T16:10:17.077Z,1010.56
2019-02-04T16:11:17.062Z,1010.59
2019-02-04T16:12:17.051Z,1010.51
2019-02-04T16:13:17.042Z,1010.53
2019-02-04T16:14:17.029Z,1010.56
2019-02-04T16:15:17.020Z,1010.58
2019-02-04T16:16:17.009Z,1010.54
2019-02-04T16:17:16.998Z,1010.56
2019-02-04T16:18:16.988Z,1010.55
2019-02-04T16:19:16.980Z,1010.58
2019-02-04T16:20:16.965Z,1010.55
2019-02-04T16:21:16.953Z,1010.54
2019-02-04T16:22:16.941Z,1010.54
2019-02-04T16:23:16.936Z,1010.58
2019-02-04T16:24:16.921Z,1010.55
2019-02-04T16:25:16.912Z,1010.51
2019-02-04T16:26:16.902Z,1010.53
2019-02-04T16:27:16.889Z,1010.50
2019-02-04T16:28:16.876Z,1010.51
2019-02-04T16:29:16.864Z,1010.53
2019-02-04T16:30:16.854Z,1010.54
2019-02-04T16:31:16.845Z,1010.52
2019-02-04T16:32:16.834Z,1010.54
2019-02-04T16:33:16.821Z,1010.60
2019-02-04T16:34:16.813Z,1010.61
2019-02-04T16:35:16.798Z,1010.58
2019-02-04T16:36:16.789Z,1010.58
2019-02-04T16:37:16.775Z,1010.59
2019-02-04T16:38:16.764Z,1010.60
2019-02-04T16:39:16.752Z,1010.59
2019-02-04T16:40:16.746Z,1010.59
2019-02-04T16:41:16.733Z,1010.61
2019-02-04T16:42:16.719Z,1010.57
2019-02-04T16:43:16.709Z,1010.55
2019-02-04T16:44:16.703Z,1010.55
2019-02-04T16:45:16.692Z,1010.60
2019-02-04T16:46:16.676Z,1010.56
2019-02-04T16:47:16.666Z,1010.58
2019-02-04T16:48:16.657Z,1010.54
2019-02-04T16:49:16.642Z,1010.55
2019-02-04T16:50:16.634Z,1010.55
2019-02-04T16:51:16.623Z,1010.52
2019-02-04T16:52:16.612Z,1010.52
2019-02-04T16:53:16.603Z,1010.47
2019-02-04T16:54:16.590Z,1010.50
2019-02-04T16:55:16.586Z,1010.51
2019-02-04T16:56:16.606Z,1010.49
2019-02-04T16:57:16.556Z,1010.50
2019-02-04T16:58:16.544Z,1010.48
2019-02-04T16:59:16.535Z,1010.48
2019-02-04T17:00:16.525Z,1010.52
2019-02-04T17:01:16.511Z,1010.50
2019-02-04T17:02:16.500Z,1010.48
2019-02-04T17:03:18.768Z,1010.48
2019-02-04T17:04:16.479Z,1010.47
2019-02-04T17:05:16.467Z,1010.51
2019-02-04T17:06:16.456Z,1010.58
2019-02-04T17:07:16.447Z,1010.53
2019-02-04T17:08:16.436Z,1010.56
2019-02-04T17:09:16.424Z,1010.51
2019-02-04T17:10:16.412Z,1010.45
2019-02-04T17:11:16.402Z,1010.50
2019-02-04T17:12:16.395Z,1010.47
2019-02-04T17:13:16.380Z,1010.43
2019-02-04T17:14:16.368Z,1010.40
2019-02-04T17:15:16.359Z,1010.42
2019-02-04T17:16:16.346Z,1010.41
2019-02-04T17:17:16.334Z,1010.42
2019-02-04T17:18:16.325Z,1010.39
2019-02-04T17:19:16.316Z,1010.34
2019-02-04T17:20:16.301Z,1010.36
2019-02-04T17:21:16.391Z,1010.41
2019-02-04T17:22:16.281Z,1010.44
2019-02-04T17:23:22.530Z,1010.36
2019-02-04T17:24:37.441Z,1010.27
2019-02-04T17:25:37.430Z,1010.31
2019-02-04T17:26:37.419Z,1010.36
2019-02-04T17:27:37.409Z,1010.45
2019-02-04T17:28:37.399Z,1010.46
2019-02-04T17:29:37.389Z,1010.50
2019-02-04T17:30:37.381Z,1010.50
2019-02-04T17:31:37.367Z,1010.49
2019-02-04T17:32:37.353Z,1010.51
2019-02-04T17:33:37.344Z,1010.59
2019-02-04T17:34:37.332Z,1010.60
2019-02-04T17:35:37.320Z,1010.59
2019-02-04T17:36:37.309Z,1010.51
2019-02-04T17:37:37.299Z,1010.53
2019-02-04T17:38:37.287Z,1010.59
2019-02-04T17:39:37.279Z,1010.49
2019-02-04T17:40:37.266Z,1010.49
2019-02-04T17:41:37.257Z,1010.47
2019-02-04T17:42:37.246Z,1010.44
2019-02-04T17:43:37.234Z,1010.42
2019-02-04T17:44:37.223Z,1010.44
2019-02-04T17:45:37.212Z,1010.43
2019-02-04T17:46:37.201Z,1010.46
2019-02-04T17:47:37.190Z,1010.52
2019-02-04T17:48:37.179Z,1010.52
2019-02-04T17:49:37.170Z,1010.52